Phoenix, Arizona
Traffic Map
Current Weather Conditions
Phoenix, Arizona
Few Clouds
Few Clouds
14°
Feels Like: 14°
Wind Chill: 14° Ceiling: Unl
Heat Index: 14° Visibility: 10mi
Dew Point: 12° Wind: 8mph
Humidity: 87% Direction: 90° (E)
Pressure: 30.04in Gusts: 0mph
Raw Report DataKPHX 221051Z 09007KT 10SM FEW200 14/12 A3004 RMK AO2 SLP163 T01390117
Traffic Incident Summary
Active as of:
Severity:
Category:
InformationThere was an issue retrieving the traffic information for this location. Please try a different location or try again shortly.
Advertisements
Track Severe Weather on mobile